Aérodrome :
LOGIN :

S'inscrire | Disclaimer

   EN    FR    IT 

 










Légende :    VFR   VFR Marginal   IFR   IFR Intensif   IFR Très Intensif
Visi : 
Plafond : 
>= 8 km
>= 3000ft
5 à 8 km
1000 à 3000 ft
1500m à 5 km
500 à 1000 ft
800 à 1500m
200 à 500 ft
< 800m
< 200 ft
Symboles :   Orages  Brouillard  Fortes neiges  Fortes précipitations  Vent > 20 kt
SIGMETs :   Divers  Orages  Givrage  Turbulence  Onde Orograph.  Cendres Volcan.







- Altitude de l'aérodrome : 876 ft
- Code IATA : MBX


LJMB - Maribor

DERNIER METAR :
  • 290700Z 21010KT 170V230 9999 -SHRA FEW020 SCT040TCU BKN080 18/16 Q1000

METARs EXPIRÉS :
  • 290630Z 20009KT 9999 FEW020 SCT040TCU BKN060 19/15 Q1000
  • 290600Z 19008KT 9999 FEW020 19/15 Q1000
  • 290530Z 17011KT 9999 FEW020 18/15 Q0999
  • 290500Z 19007KT 9999 FEW020 SCT250 17/15 Q1000
  • 290430Z 18007KT 9999 FEW013 SCT180 16/14 Q1000

TAF TAF LJMB
Valide du 29 à 06h jusqu'au 30 à 06h UTC


290500Z 2906/3006 20008KT 9999 FEW040 SCT130
TEMPO 2906/2919 22015G30KT SHRA SCT030TCU BKN060
PROB40
TEMPO 2906/2915 VRB15G25KT 7000 TSRA SCT030CB BKN040
Pas de NOTAMs connus pour ce terrain.
1 SIGMET publié pour la FIR Ljubljana (LJLA) :
 
Orages noyés dans la masse
LJLA SIGMET 1 VALID 290600/290730 LJLJ
LJLA LJUBLJANA FIR EMBD TS OBS WI N4638 E01525 - N4518 E01359 - N4536 E01337 - N4644 E01458 - N4638 E01525 TOP FL360 MOV NE 15KT NC=



MET'MAP, la Météo Aéronautique d'un coup d'oeil ! - Copyright ORBIFLY Décembre 2007 - Disclaimer

ORBIFLY MET'MAP TEAM :

Programmation & Développement : Alexandra Zaïnal
Conception & Développement : Baudouin d'Aumeries
Co-Programmation & Développement : Marc-Olivier Méhu
Soutien technique & logistique : Manuel Goepfert

Contact : metmap@orbifly.com




SOURCES & CREDITS :

   NOAA